sensor_id;sensor_type;location;lat;lon;timestamp;temperature;humidity
39695;DHT22;25367;-35.352;149.036;2022-07-12T00:01:39;22.30;40.30
39695;DHT22;25367;-35.352;149.036;2022-07-12T00:04:08;22.20;40.50
39695;DHT22;25367;-35.352;149.036;2022-07-12T00:06:41;22.10;40.60
39695;DHT22;25367;-35.352;149.036;2022-07-12T00:09:10;22.10;40.50
39695;DHT22;25367;-35.352;149.036;2022-07-12T00:11:40;22.20;40.40
39695;DHT22;25367;-35.352;149.036;2022-07-12T00:14:09;23.00;39.10
39695;DHT22;25367;-35.352;149.036;2022-07-12T00:16:39;22.90;39.10
39695;DHT22;25367;-35.352;149.036;2022-07-12T00:19:08;23.20;38.60
39695;DHT22;25367;-35.352;149.036;2022-07-12T00:21:41;23.10;38.70
39695;DHT22;25367;-35.352;149.036;2022-07-12T00:24:10;23.00;39.00
39695;DHT22;25367;-35.352;149.036;2022-07-12T00:26:40;23.00;38.90
39695;DHT22;25367;-35.352;149.036;2022-07-12T00:29:09;22.90;39.30
39695;DHT22;25367;-35.352;149.036;2022-07-12T01:57:16;24.80;37.00
39695;DHT22;25367;-35.352;149.036;2022-07-12T01:59:46;24.60;37.10
39695;DHT22;25367;-35.352;149.036;2022-07-12T02:02:15;24.50;37.40
39695;DHT22;25367;-35.352;149.036;2022-07-12T02:04:45;24.50;37.50
39695;DHT22;25367;-35.352;149.036;2022-07-12T02:07:15;24.70;37.50
39695;DHT22;25367;-35.352;149.036;2022-07-12T02:09:44;25.00;37.20
39695;DHT22;25367;-35.352;149.036;2022-07-12T02:12:16;25.30;36.90
39695;DHT22;25367;-35.352;149.036;2022-07-12T02:14:45;25.50;36.80
39695;DHT22;25367;-35.352;149.036;2022-07-12T02:17:14;25.50;36.90
39695;DHT22;25367;-35.352;149.036;2022-07-12T02:19:44;25.60;37.00
39695;DHT22;25367;-35.352;149.036;2022-07-12T02:22:14;25.60;37.00
39695;DHT22;25367;-35.352;149.036;2022-07-12T02:24:43;25.80;37.10
39695;DHT22;25367;-35.352;149.036;2022-07-12T02:27:15;25.80;37.20
39695;DHT22;25367;-35.352;149.036;2022-07-12T02:29:44;25.90;37.00
39695;DHT22;25367;-35.352;149.036;2022-07-12T02:35:12;26.10;36.60
39695;DHT22;25367;-35.352;149.036;2022-07-12T02:37:42;26.10;36.40
39695;DHT22;25367;-35.352;149.036;2022-07-12T02:40:12;26.00;36.40
39695;DHT22;25367;-35.352;149.036;2022-07-12T02:42:43;25.60;36.80
39695;DHT22;25367;-35.352;149.036;2022-07-12T02:45:12;25.60;36.80
39695;DHT22;25367;-35.352;149.036;2022-07-12T02:47:43;25.60;36.80
39695;DHT22;25367;-35.352;149.036;2022-07-12T02:50:12;25.60;36.70
39695;DHT22;25367;-35.352;149.036;2022-07-12T02:52:41;25.60;36.80
39695;DHT22;25367;-35.352;149.036;2022-07-12T02:55:11;25.60;36.90
39695;DHT22;25367;-35.352;149.036;2022-07-12T02:57:43;25.40;37.10
39695;DHT22;25367;-35.352;149.036;2022-07-12T03:00:14;25.30;37.30
39695;DHT22;25367;-35.352;149.036;2022-07-12T03:02:44;25.20;37.60
39695;DHT22;25367;-35.352;149.036;2022-07-12T03:05:13;25.10;37.50
39695;DHT22;25367;-35.352;149.036;2022-07-12T03:07:42;25.10;37.80
39695;DHT22;25367;-35.352;149.036;2022-07-12T03:10:12;25.10;37.90
39695;DHT22;25367;-35.352;149.036;2022-07-12T03:12:43;24.90;37.90
39695;DHT22;25367;-35.352;149.036;2022-07-12T03:15:13;24.80;38.00
39695;DHT22;25367;-35.352;149.036;2022-07-12T03:17:42;24.90;38.00
39695;DHT22;25367;-35.352;149.036;2022-07-12T03:20:12;24.80;37.90
39695;DHT22;25367;-35.352;149.036;2022-07-12T03:22:41;24.70;38.00
39695;DHT22;25367;-35.352;149.036;2022-07-12T03:25:11;24.70;38.00
39695;DHT22;25367;-35.352;149.036;2022-07-12T03:27:42;24.50;38.20
39695;DHT22;25367;-35.352;149.036;2022-07-12T03:30:12;24.50;38.40
39695;DHT22;25367;-35.352;149.036;2022-07-12T03:32:42;24.50;38.50
39695;DHT22;25367;-35.352;149.036;2022-07-12T03:35:12;24.40;38.50
39695;DHT22;25367;-35.352;149.036;2022-07-12T03:37:43;24.30;38.50
39695;DHT22;25367;-35.352;149.036;2022-07-12T03:40:14;24.30;38.40
39695;DHT22;25367;-35.352;149.036;2022-07-12T03:42:46;24.30;38.40
39695;DHT22;25367;-35.352;149.036;2022-07-12T03:45:16;24.40;38.30
39695;DHT22;25367;-35.352;149.036;2022-07-12T03:47:46;24.30;38.30
39695;DHT22;25367;-35.352;149.036;2022-07-12T03:50:17;24.30;38.40
39695;DHT22;25367;-35.352;149.036;2022-07-12T03:52:47;24.30;38.40
39695;DHT22;25367;-35.352;149.036;2022-07-12T03:55:17;24.10;38.50
39695;DHT22;25367;-35.352;149.036;2022-07-12T03:57:50;24.10;38.70
39695;DHT22;25367;-35.352;149.036;2022-07-12T04:00:21;24.10;38.50
39695;DHT22;25367;-35.352;149.036;2022-07-12T04:02:51;24.10;38.60
39695;DHT22;25367;-35.352;149.036;2022-07-12T04:05:22;24.10;38.60
39695;DHT22;25367;-35.352;149.036;2022-07-12T04:07:56;24.00;38.70
39695;DHT22;25367;-35.352;149.036;2022-07-12T04:10:27;23.90;38.90
39695;DHT22;25367;-35.352;149.036;2022-07-12T04:13:04;23.90;38.90
39695;DHT22;25367;-35.352;149.036;2022-07-12T04:15:37;23.90;38.80
39695;DHT22;25367;-35.352;149.036;2022-07-12T04:18:07;23.90;38.90
39695;DHT22;25367;-35.352;149.036;2022-07-12T04:20:39;24.00;38.70
39695;DHT22;25367;-35.352;149.036;2022-07-12T04:23:08;24.00;38.70
39695;DHT22;25367;-35.352;149.036;2022-07-12T04:25:38;23.90;38.80
39695;DHT22;25367;-35.352;149.036;2022-07-12T04:28:10;23.80;38.90
39695;DHT22;25367;-35.352;149.036;2022-07-12T04:30:44;23.80;38.90
39695;DHT22;25367;-35.352;149.036;2022-07-12T04:33:14;23.70;39.00
39695;DHT22;25367;-35.352;149.036;2022-07-12T04:35:45;23.50;39.70
39695;DHT22;25367;-35.352;149.036;2022-07-12T04:38:18;23.30;40.20
39695;DHT22;25367;-35.352;149.036;2022-07-12T04:40:54;23.40;39.90
39695;DHT22;25367;-35.352;149.036;2022-07-12T04:43:27;23.20;40.40
39695;DHT22;25367;-35.352;149.036;2022-07-12T04:46:06;23.40;40.80
39695;DHT22;25367;-35.352;149.036;2022-07-12T04:48:37;23.30;40.20
39695;DHT22;25367;-35.352;149.036;2022-07-12T04:51:14;23.30;40.30
39695;DHT22;25367;-35.352;149.036;2022-07-12T04:53:45;23.30;40.30
39695;DHT22;25367;-35.352;149.036;2022-07-12T04:56:18;23.20;40.60
39695;DHT22;25367;-35.352;149.036;2022-07-12T04:58:50;23.50;40.00
39695;DHT22;25367;-35.352;149.036;2022-07-12T05:01:20;23.40;40.10
39695;DHT22;25367;-35.352;149.036;2022-07-12T05:03:50;23.60;39.90
39695;DHT22;25367;-35.352;149.036;2022-07-12T05:06:24;23.50;39.70
39695;DHT22;25367;-35.352;149.036;2022-07-12T05:08:53;23.60;39.90
39695;DHT22;25367;-35.352;149.036;2022-07-12T05:11:22;23.40;40.30
39695;DHT22;25367;-35.352;149.036;2022-07-12T05:13:54;23.60;40.10
39695;DHT22;25367;-35.352;149.036;2022-07-12T05:16:23;23.80;39.80
39695;DHT22;25367;-35.352;149.036;2022-07-12T05:18:52;24.10;39.30
39695;DHT22;25367;-35.352;149.036;2022-07-12T05:21:22;24.30;39.10
39695;DHT22;25367;-35.352;149.036;2022-07-12T05:23:51;24.30;39.20
39695;DHT22;25367;-35.352;149.036;2022-07-12T05:26:20;24.30;39.10
39695;DHT22;25367;-35.352;149.036;2022-07-12T05:28:52;24.30;38.80
39695;DHT22;25367;-35.352;149.036;2022-07-12T05:31:22;24.10;39.00
39695;DHT22;25367;-35.352;149.036;2022-07-12T05:33:51;23.90;39.20
39695;DHT22;25367;-35.352;149.036;2022-07-12T05:36:21;23.90;39.20
39695;DHT22;25367;-35.352;149.036;2022-07-12T05:38:50;23.90;39.20
39695;DHT22;25367;-35.352;149.036;2022-07-12T05:41:20;24.00;39.40
39695;DHT22;25367;-35.352;149.036;2022-07-12T05:43:52;23.90;39.80
39695;DHT22;25367;-35.352;149.036;2022-07-12T05:46:22;24.00;39.80
39695;DHT22;25367;-35.352;149.036;2022-07-12T05:48:52;24.30;39.30
39695;DHT22;25367;-35.352;149.036;2022-07-12T05:51:22;24.30;39.10
39695;DHT22;25367;-35.352;149.036;2022-07-12T05:53:51;24.20;38.90
39695;DHT22;25367;-35.352;149.036;2022-07-12T05:56:21;24.30;38.90
39695;DHT22;25367;-35.352;149.036;2022-07-12T05:58:52;24.30;39.00
39695;DHT22;25367;-35.352;149.036;2022-07-12T06:01:22;24.20;39.10
39695;DHT22;25367;-35.352;149.036;2022-07-12T06:03:51;24.20;39.00
39695;DHT22;25367;-35.352;149.036;2022-07-12T06:06:21;24.10;39.00
39695;DHT22;25367;-35.352;149.036;2022-07-12T06:08:50;24.10;39.20
39695;DHT22;25367;-35.352;149.036;2022-07-12T06:11:19;24.30;39.00
39695;DHT22;25367;-35.352;149.036;2022-07-12T06:13:49;24.20;39.00
39695;DHT22;25367;-35.352;149.036;2022-07-12T06:16:20;24.20;39.00
39695;DHT22;25367;-35.352;149.036;2022-07-12T06:18:50;24.20;38.80
39695;DHT22;25367;-35.352;149.036;2022-07-12T06:21:19;24.20;39.00
39695;DHT22;25367;-35.352;149.036;2022-07-12T06:23:49;24.20;39.10
39695;DHT22;25367;-35.352;149.036;2022-07-12T06:26:18;24.20;39.10
39695;DHT22;25367;-35.352;149.036;2022-07-12T06:28:47;24.20;39.20
39695;DHT22;25367;-35.352;149.036;2022-07-12T06:31:20;24.10;39.10
39695;DHT22;25367;-35.352;149.036;2022-07-12T06:33:50;24.10;39.40
39695;DHT22;25367;-35.352;149.036;2022-07-12T06:36:19;24.00;39.10
39695;DHT22;25367;-35.352;149.036;2022-07-12T06:38:52;24.00;39.50
39695;DHT22;25367;-35.352;149.036;2022-07-12T06:41:24;24.00;39.60
39695;DHT22;25367;-35.352;149.036;2022-07-12T06:43:54;24.10;39.30
39695;DHT22;25367;-35.352;149.036;2022-07-12T06:46:27;24.10;39.20
39695;DHT22;25367;-35.352;149.036;2022-07-12T06:48:57;24.00;39.40
39695;DHT22;25367;-35.352;149.036;2022-07-12T06:51:30;24.10;39.40
39695;DHT22;25367;-35.352;149.036;2022-07-12T06:54:04;24.10;39.40
39695;DHT22;25367;-35.352;149.036;2022-07-12T06:56:37;24.00;39.30
39695;DHT22;25367;-35.352;149.036;2022-07-12T06:59:13;24.00;39.20
39695;DHT22;25367;-35.352;149.036;2022-07-12T07:01:44;23.90;39.40
39695;DHT22;25367;-35.352;149.036;2022-07-12T07:04:14;23.80;39.30
39695;DHT22;25367;-35.352;149.036;2022-07-12T07:06:44;23.90;39.30
39695;DHT22;25367;-35.352;149.036;2022-07-12T07:09:13;23.90;39.20
39695;DHT22;25367;-35.352;149.036;2022-07-12T07:11:42;23.80;39.40
39695;DHT22;25367;-35.352;149.036;2022-07-12T07:14:12;23.80;39.10
39695;DHT22;25367;-35.352;149.036;2022-07-12T07:16:48;23.80;39.40
39695;DHT22;25367;-35.352;149.036;2022-07-12T07:19:17;23.60;39.50
39695;DHT22;25367;-35.352;149.036;2022-07-12T07:21:47;23.40;39.80
39695;DHT22;25367;-35.352;149.036;2022-07-12T07:24:16;23.40;40.00
39695;DHT22;25367;-35.352;149.036;2022-07-12T07:26:45;23.40;39.90
39695;DHT22;25367;-35.352;149.036;2022-07-12T07:29:15;23.60;40.00
39695;DHT22;25367;-35.352;149.036;2022-07-12T07:31:46;23.70;39.90
39695;DHT22;25367;-35.352;149.036;2022-07-12T07:34:16;23.70;39.80
39695;DHT22;25367;-35.352;149.036;2022-07-12T07:36:45;23.70;39.80
39695;DHT22;25367;-35.352;149.036;2022-07-12T07:39:15;23.70;39.60
39695;DHT22;25367;-35.352;149.036;2022-07-12T07:41:44;23.80;39.60
39695;DHT22;25367;-35.352;149.036;2022-07-12T07:44:14;23.90;40.00
39695;DHT22;25367;-35.352;149.036;2022-07-12T07:46:45;23.90;39.90
39695;DHT22;25367;-35.352;149.036;2022-07-12T07:49:15;23.80;39.50
39695;DHT22;25367;-35.352;149.036;2022-07-12T07:51:44;23.80;39.60
39695;DHT22;25367;-35.352;149.036;2022-07-12T07:54:13;23.80;39.60
39695;DHT22;25367;-35.352;149.036;2022-07-12T07:56:43;23.80;39.90
39695;DHT22;25367;-35.352;149.036;2022-07-12T07:59:13;23.80;40.00
39695;DHT22;25367;-35.352;149.036;2022-07-12T08:01:44;23.80;40.00
39695;DHT22;25367;-35.352;149.036;2022-07-12T08:04:14;23.80;40.10
39695;DHT22;25367;-35.352;149.036;2022-07-12T08:06:44;23.80;39.90
39695;DHT22;25367;-35.352;149.036;2022-07-12T08:09:13;23.80;40.00
39695;DHT22;25367;-35.352;149.036;2022-07-12T08:11:43;23.80;40.10
39695;DHT22;25367;-35.352;149.036;2022-07-12T08:14:13;23.90;40.00
39695;DHT22;25367;-35.352;149.036;2022-07-12T08:16:45;23.80;40.10
39695;DHT22;25367;-35.352;149.036;2022-07-12T08:19:14;23.80;40.20
39695;DHT22;25367;-35.352;149.036;2022-07-12T08:21:44;23.80;39.90
39695;DHT22;25367;-35.352;149.036;2022-07-12T08:24:13;23.80;40.30
39695;DHT22;25367;-35.352;149.036;2022-07-12T08:26:42;23.70;40.30
39695;DHT22;25367;-35.352;149.036;2022-07-12T08:29:12;23.80;40.40
39695;DHT22;25367;-35.352;149.036;2022-07-12T08:31:41;23.80;40.20
39695;DHT22;25367;-35.352;149.036;2022-07-12T08:34:13;23.70;40.40
39695;DHT22;25367;-35.352;149.036;2022-07-12T08:36:42;23.80;40.30
39695;DHT22;25367;-35.352;149.036;2022-07-12T08:39:12;23.80;40.10
39695;DHT22;25367;-35.352;149.036;2022-07-12T08:41:41;23.80;40.00
39695;DHT22;25367;-35.352;149.036;2022-07-12T08:44:11;23.70;40.00
39695;DHT22;25367;-35.352;149.036;2022-07-12T08:46:40;23.80;39.90
39695;DHT22;25367;-35.352;149.036;2022-07-12T08:49:12;23.80;39.80
39695;DHT22;25367;-35.352;149.036;2022-07-12T08:51:42;23.80;39.70
39695;DHT22;25367;-35.352;149.036;2022-07-12T08:54:12;23.80;39.70
39695;DHT22;25367;-35.352;149.036;2022-07-12T08:56:42;23.80;39.70
39695;DHT22;25367;-35.352;149.036;2022-07-12T08:59:17;23.70;39.70
39695;DHT22;25367;-35.352;149.036;2022-07-12T09:01:48;23.60;40.00
39695;DHT22;25367;-35.352;149.036;2022-07-12T09:04:22;23.50;40.80
39695;DHT22;25367;-35.352;149.036;2022-07-12T09:06:52;23.60;41.10
39695;DHT22;25367;-35.352;149.036;2022-07-12T09:09:32;23.10;42.30
39695;DHT22;25367;-35.352;149.036;2022-07-12T09:12:02;22.90;43.80
39695;DHT22;25367;-35.352;149.036;2022-07-12T09:14:32;22.70;43.90
39695;DHT22;25367;-35.352;149.036;2022-07-12T09:17:02;22.60;44.50
39695;DHT22;25367;-35.352;149.036;2022-07-12T09:19:34;22.80;44.70
39695;DHT22;25367;-35.352;149.036;2022-07-12T09:22:04;23.00;44.40
39695;DHT22;25367;-35.352;149.036;2022-07-12T09:24:33;23.10;44.20
39695;DHT22;25367;-35.352;149.036;2022-07-12T09:27:03;23.20;44.10
39695;DHT22;25367;-35.352;149.036;2022-07-12T09:29:34;23.60;43.30
39695;DHT22;25367;-35.352;149.036;2022-07-12T09:32:15;24.20;41.80
39695;DHT22;25367;-35.352;149.036;2022-07-12T09:34:56;24.60;40.70
39695;DHT22;25367;-35.352;149.036;2022-07-12T09:37:26;24.70;40.10
39695;DHT22;25367;-35.352;149.036;2022-07-12T09:39:56;24.80;39.90
39695;DHT22;25367;-35.352;149.036;2022-07-12T09:42:26;24.80;39.60
39695;DHT22;25367;-35.352;149.036;2022-07-12T09:44:56;24.80;39.50
39695;DHT22;25367;-35.352;149.036;2022-07-12T09:47:26;24.90;39.30
39695;DHT22;25367;-35.352;149.036;2022-07-12T09:49:58;24.80;39.20
39695;DHT22;25367;-35.352;149.036;2022-07-12T09:52:28;24.80;39.30
39695;DHT22;25367;-35.352;149.036;2022-07-12T09:54:58;24.70;39.40
39695;DHT22;25367;-35.352;149.036;2022-07-12T09:57:31;24.60;39.30
39695;DHT22;25367;-35.352;149.036;2022-07-12T10:00:02;24.60;39.50
39695;DHT22;25367;-35.352;149.036;2022-07-12T10:02:40;24.50;40.30
39695;DHT22;25367;-35.352;149.036;2022-07-12T10:05:13;24.60;40.40
39695;DHT22;25367;-35.352;149.036;2022-07-12T10:07:46;24.40;40.90
39695;DHT22;25367;-35.352;149.036;2022-07-12T10:10:17;24.30;41.50
39695;DHT22;25367;-35.352;149.036;2022-07-12T10:12:47;24.50;41.40
39695;DHT22;25367;-35.352;149.036;2022-07-12T10:15:19;24.80;41.00
39695;DHT22;25367;-35.352;149.036;2022-07-12T10:17:53;25.10;39.90
39695;DHT22;25367;-35.352;149.036;2022-07-12T10:20:25;25.40;39.10
39695;DHT22;25367;-35.352;149.036;2022-07-12T10:22:58;25.40;38.90
39695;DHT22;25367;-35.352;149.036;2022-07-12T10:25:45;25.40;38.60
39695;DHT22;25367;-35.352;149.036;2022-07-12T10:28:14;25.20;38.70
39695;DHT22;25367;-35.352;149.036;2022-07-12T10:30:45;25.30;38.80
39695;DHT22;25367;-35.352;149.036;2022-07-12T10:33:18;25.20;38.80
39695;DHT22;25367;-35.352;149.036;2022-07-12T10:36:04;25.10;38.80
39695;DHT22;25367;-35.352;149.036;2022-07-12T10:38:34;25.20;38.80
39695;DHT22;25367;-35.352;149.036;2022-07-12T10:41:18;25.30;38.70
39695;DHT22;25367;-35.352;149.036;2022-07-12T10:44:03;25.20;38.60
39695;DHT22;25367;-35.352;149.036;2022-07-12T10:46:34;25.10;39.00
39695;DHT22;25367;-35.352;149.036;2022-07-12T10:49:26;25.10;39.10
39695;DHT22;25367;-35.352;149.036;2022-07-12T10:52:27;25.00;39.60
39695;DHT22;25367;-35.352;149.036;2022-07-12T10:55:17;24.70;40.30
39695;DHT22;25367;-35.352;149.036;2022-07-12T10:57:50;25.00;40.20
39695;DHT22;25367;-35.352;149.036;2022-07-12T11:00:20;25.50;39.10
39695;DHT22;25367;-35.352;149.036;2022-07-12T11:02:50;25.80;38.40
39695;DHT22;25367;-35.352;149.036;2022-07-12T11:05:26;25.80;37.90
39695;DHT22;25367;-35.352;149.036;2022-07-12T11:07:57;25.80;38.40
39695;DHT22;25367;-35.352;149.036;2022-07-12T11:10:28;25.80;37.80
39695;DHT22;25367;-35.352;149.036;2022-07-12T11:12:57;25.80;37.80
39695;DHT22;25367;-35.352;149.036;2022-07-12T11:15:27;25.80;37.70
39695;DHT22;25367;-35.352;149.036;2022-07-12T11:17:56;25.60;38.20
39695;DHT22;25367;-35.352;149.036;2022-07-12T11:20:29;25.40;38.40
39695;DHT22;25367;-35.352;149.036;2022-07-12T11:23:01;25.20;39.10
39695;DHT22;25367;-35.352;149.036;2022-07-12T11:25:30;25.10;39.40
39695;DHT22;25367;-35.352;149.036;2022-07-12T11:28:00;24.90;39.40
39695;DHT22;25367;-35.352;149.036;2022-07-12T11:30:30;24.90;39.80
39695;DHT22;25367;-35.352;149.036;2022-07-12T11:32:59;24.70;40.10
39695;DHT22;25367;-35.352;149.036;2022-07-12T11:35:29;24.90;40.00
39695;DHT22;25367;-35.352;149.036;2022-07-12T11:38:00;25.00;39.50
39695;DHT22;25367;-35.352;149.036;2022-07-12T11:40:31;24.90;40.10
39695;DHT22;25367;-35.352;149.036;2022-07-12T11:43:00;24.90;40.30
39695;DHT22;25367;-35.352;149.036;2022-07-12T11:45:31;24.70;40.20
39695;DHT22;25367;-35.352;149.036;2022-07-12T11:48:02;24.70;40.30
39695;DHT22;25367;-35.352;149.036;2022-07-12T11:50:32;24.80;40.10
39695;DHT22;25367;-35.352;149.036;2022-07-12T11:53:03;24.70;40.30
39695;DHT22;25367;-35.352;149.036;2022-07-12T11:55:43;24.90;40.20
39695;DHT22;25367;-35.352;149.036;2022-07-12T11:58:13;24.70;40.60
39695;DHT22;25367;-35.352;149.036;2022-07-12T12:00:43;24.80;40.50
39695;DHT22;25367;-35.352;149.036;2022-07-12T12:03:13;24.90;40.30
39695;DHT22;25367;-35.352;149.036;2022-07-12T12:05:43;24.90;40.30
39695;DHT22;25367;-35.352;149.036;2022-07-12T12:08:15;24.90;40.20
39695;DHT22;25367;-35.352;149.036;2022-07-12T12:10:54;24.80;40.20
39695;DHT22;25367;-35.352;149.036;2022-07-12T12:13:24;24.80;40.20
39695;DHT22;25367;-35.352;149.036;2022-07-12T12:15:54;24.80;40.20
39695;DHT22;25367;-35.352;149.036;2022-07-12T12:18:31;24.80;40.20
39695;DHT22;25367;-35.352;149.036;2022-07-12T12:21:02;24.80;40.20
39695;DHT22;25367;-35.352;149.036;2022-07-12T12:23:34;24.70;40.20
39695;DHT22;25367;-35.352;149.036;2022-07-12T12:26:14;24.70;40.30
39695;DHT22;25367;-35.352;149.036;2022-07-12T12:28:49;24.60;40.30
39695;DHT22;25367;-35.352;149.036;2022-07-12T12:31:19;24.70;40.40
39695;DHT22;25367;-35.352;149.036;2022-07-12T12:33:49;24.60;40.30
39695;DHT22;25367;-35.352;149.036;2022-07-12T12:36:20;24.60;40.40
39695;DHT22;25367;-35.352;149.036;2022-07-12T12:38:53;24.50;40.50
39695;DHT22;25367;-35.352;149.036;2022-07-12T12:41:23;24.60;40.40
39695;DHT22;25367;-35.352;149.036;2022-07-12T12:44:02;24.60;40.40
39695;DHT22;25367;-35.352;149.036;2022-07-12T12:46:51;24.60;40.40
39695;DHT22;25367;-35.352;149.036;2022-07-12T12:49:23;24.60;40.40
39695;DHT22;25367;-35.352;149.036;2022-07-12T12:52:12;24.50;40.50
39695;DHT22;25367;-35.352;149.036;2022-07-12T12:54:43;24.50;41.10
39695;DHT22;25367;-35.352;149.036;2022-07-12T12:57:13;24.40;40.60
39695;DHT22;25367;-35.352;149.036;2022-07-12T12:59:43;24.40;40.60
39695;DHT22;25367;-35.352;149.036;2022-07-12T13:02:13;24.50;40.60
39695;DHT22;25367;-35.352;149.036;2022-07-12T13:04:42;24.30;40.80
39695;DHT22;25367;-35.352;149.036;2022-07-12T13:07:11;24.30;40.80
39695;DHT22;25367;-35.352;149.036;2022-07-12T13:09:43;24.30;40.90
39695;DHT22;25367;-35.352;149.036;2022-07-12T13:12:12;24.30;40.90
39695;DHT22;25367;-35.352;149.036;2022-07-12T13:14:42;24.30;40.90
39695;DHT22;25367;-35.352;149.036;2022-07-12T13:17:11;24.30;40.90
39695;DHT22;25367;-35.352;149.036;2022-07-12T13:19:40;24.10;41.10
39695;DHT22;25367;-35.352;149.036;2022-07-12T13:22:09;24.20;41.30
39695;DHT22;25367;-35.352;149.036;2022-07-12T13:24:39;24.20;41.10
39695;DHT22;25367;-35.352;149.036;2022-07-12T13:27:10;24.20;41.00
39695;DHT22;25367;-35.352;149.036;2022-07-12T13:29:40;24.10;41.10
39695;DHT22;25367;-35.352;149.036;2022-07-12T13:32:09;24.00;41.30
39695;DHT22;25367;-35.352;149.036;2022-07-12T13:34:38;24.00;41.40
39695;DHT22;25367;-35.352;149.036;2022-07-12T13:37:08;24.00;41.40
39695;DHT22;25367;-35.352;149.036;2022-07-12T13:39:37;24.00;41.60
39695;DHT22;25367;-35.352;149.036;2022-07-12T13:42:08;24.00;41.20
39695;DHT22;25367;-35.352;149.036;2022-07-12T13:44:38;24.00;41.10
39695;DHT22;25367;-35.352;149.036;2022-07-12T13:47:07;23.30;43.10
39695;DHT22;25367;-35.352;149.036;2022-07-12T13:49:37;23.60;42.40
39695;DHT22;25367;-35.352;149.036;2022-07-12T13:52:06;24.00;41.30
39695;DHT22;25367;-35.352;149.036;2022-07-12T13:54:36;24.10;40.80
39695;DHT22;25367;-35.352;149.036;2022-07-12T13:57:06;24.20;40.60
39695;DHT22;25367;-35.352;149.036;2022-07-12T13:59:37;24.20;40.70
39695;DHT22;25367;-35.352;149.036;2022-07-12T14:02:07;24.20;40.80
39695;DHT22;25367;-35.352;149.036;2022-07-12T14:04:37;24.20;40.80
39695;DHT22;25367;-35.352;149.036;2022-07-12T14:07:06;24.10;40.90
39695;DHT22;25367;-35.352;149.036;2022-07-12T14:09:35;24.00;40.60
39695;DHT22;25367;-35.352;149.036;2022-07-12T14:12:05;24.10;40.40
39695;DHT22;25367;-35.352;149.036;2022-07-12T14:14:36;23.40;41.80
39695;DHT22;25367;-35.352;149.036;2022-07-12T14:17:05;23.70;41.70
39695;DHT22;25367;-35.352;149.036;2022-07-12T14:19:35;24.10;40.70
39695;DHT22;25367;-35.352;149.036;2022-07-12T14:22:04;24.30;40.20
39695;DHT22;25367;-35.352;149.036;2022-07-12T14:24:34;24.50;40.00
39695;DHT22;25367;-35.352;149.036;2022-07-12T14:27:03;24.30;40.00
39695;DHT22;25367;-35.352;149.036;2022-07-12T14:29:32;24.20;39.80
39695;DHT22;25367;-35.352;149.036;2022-07-12T14:32:04;24.20;39.90
39695;DHT22;25367;-35.352;149.036;2022-07-12T14:34:34;23.50;41.50
39695;DHT22;25367;-35.352;149.036;2022-07-12T14:37:03;23.90;41.20
39695;DHT22;25367;-35.352;149.036;2022-07-12T14:39:33;24.20;40.20
39695;DHT22;25367;-35.352;149.036;2022-07-12T14:42:02;24.40;39.80
39695;DHT22;25367;-35.352;149.036;2022-07-12T14:44:31;24.60;39.60
39695;DHT22;25367;-35.352;149.036;2022-07-12T14:47:03;24.60;39.40
39695;DHT22;25367;-35.352;149.036;2022-07-12T14:49:32;24.40;39.30
39695;DHT22;25367;-35.352;149.036;2022-07-12T14:52:02;24.40;39.30
39695;DHT22;25367;-35.352;149.036;2022-07-12T14:54:31;23.80;40.60
39695;DHT22;25367;-35.352;149.036;2022-07-12T14:57:00;24.00;40.40
39695;DHT22;25367;-35.352;149.036;2022-07-12T14:59:30;24.30;39.70
39695;DHT22;25367;-35.352;149.036;2022-07-12T15:02:00;24.50;39.30
39695;DHT22;25367;-35.352;149.036;2022-07-12T15:04:31;24.60;39.10
39695;DHT22;25367;-35.352;149.036;2022-07-12T15:07:01;24.60;39.10
39695;DHT22;25367;-35.352;149.036;2022-07-12T15:09:30;24.50;38.90
39695;DHT22;25367;-35.352;149.036;2022-07-12T15:12:00;24.60;38.90
39695;DHT22;25367;-35.352;149.036;2022-07-12T15:14:30;24.60;38.90
39695;DHT22;25367;-35.352;149.036;2022-07-12T15:16:59;24.20;39.40
39695;DHT22;25367;-35.352;149.036;2022-07-12T15:19:30;23.70;40.70
39695;DHT22;25367;-35.352;149.036;2022-07-12T15:22:00;24.00;40.30
39695;DHT22;25367;-35.352;149.036;2022-07-12T15:24:29;24.40;39.50
39695;DHT22;25367;-35.352;149.036;2022-07-12T15:26:59;24.50;39.20
39695;DHT22;25367;-35.352;149.036;2022-07-12T15:29:28;24.70;39.00
39695;DHT22;25367;-35.352;149.036;2022-07-12T15:31:57;24.60;38.90
39695;DHT22;25367;-35.352;149.036;2022-07-12T15:34:27;24.50;38.70
39695;DHT22;25367;-35.352;149.036;2022-07-12T15:36:58;24.40;39.30
39695;DHT22;25367;-35.352;149.036;2022-07-12T15:39:28;24.00;39.70
39695;DHT22;25367;-35.352;149.036;2022-07-12T15:41:57;24.10;39.70
39695;DHT22;25367;-35.352;149.036;2022-07-12T15:44:27;24.50;39.00
39695;DHT22;25367;-35.352;149.036;2022-07-12T15:46:56;24.70;38.50
39695;DHT22;25367;-35.352;149.036;2022-07-12T15:49:26;24.70;38.30
39695;DHT22;25367;-35.352;149.036;2022-07-12T15:51:57;24.70;38.20
39695;DHT22;25367;-35.352;149.036;2022-07-12T15:54:27;24.60;38.00
39695;DHT22;25367;-35.352;149.036;2022-07-12T15:56:56;24.30;38.60
39695;DHT22;25367;-35.352;149.036;2022-07-12T15:59:25;23.80;39.70
39695;DHT22;25367;-35.352;149.036;2022-07-12T16:01:54;24.20;39.40
39695;DHT22;25367;-35.352;149.036;2022-07-12T16:04:24;24.50;38.60
39695;DHT22;25367;-35.352;149.036;2022-07-12T16:06:54;24.60;38.20
39695;DHT22;25367;-35.352;149.036;2022-07-12T16:09:25;24.80;38.10
39695;DHT22;25367;-35.352;149.036;2022-07-12T16:11:54;24.70;37.90
39695;DHT22;25367;-35.352;149.036;2022-07-12T16:14:23;24.70;37.70
39695;DHT22;25367;-35.352;149.036;2022-07-12T16:16:53;24.00;38.80
39695;DHT22;25367;-35.352;149.036;2022-07-12T16:19:22;24.20;39.00
39695;DHT22;25367;-35.352;149.036;2022-07-12T16:21:52;24.60;38.20
39695;DHT22;25367;-35.352;149.036;2022-07-12T16:24:23;24.70;37.80
39695;DHT22;25367;-35.352;149.036;2022-07-12T16:26:53;24.90;37.70
39695;DHT22;25367;-35.352;149.036;2022-07-12T16:29:22;24.70;37.60
39695;DHT22;25367;-35.352;149.036;2022-07-12T16:31:52;24.70;37.40
39695;DHT22;25367;-35.352;149.036;2022-07-12T16:34:21;24.20;38.30
39695;DHT22;25367;-35.352;149.036;2022-07-12T16:36:50;24.20;38.80
39695;DHT22;25367;-35.352;149.036;2022-07-12T16:39:20;24.60;38.10